YBCSYBTL

Guest
Details From YBCS - Cairns Intl
To YBTL - Townsville Intl
Flight Number -
Tags decoded
Created
Modified
Stats Distance 241 nm / 446 km
Max Altitude 0 ft / 0 m
Waypoints 3
Social Downloads 0
Likes 0
Share VATSIM

Download

Looking for another format? Having issues loading an existing format? Contact us
Advertisement - Login to hide

Notes

Requested: YBCS KONDA GUGUK YBTL

Route

YBCS KONDA YBTL

ID Type Via Altitude Latitude Longitude Leg Dist Tot Dist Heading (true) Name
O YBCS APT - 0 ft / 0 m -16.88108˚ 145.75260˚ - 0 nm - Cairns Intl
KONDA FIX - 0 ft / 0 m -16.63083˚ 144.90611˚ 50 nm 50 nm 287° / 287° -
O YBTL APT - 0 ft / 0 m -19.25135˚ 146.76502˚ 189 nm 240 nm 146° / 146° Townsville Intl

Altitude Profile

Advertisement - Login to hide

Weather


0- 5 10 15 20 25 30 35+ Temperature / ° C

Clouds and Precipitation
Forecast for 2017-12-19 00:00 UTC. Updated an hour ago

Ground ~20,000 ft ~40,000 ft Winds

YBCS

Details ICAO YBCS (CNS)
Name Cairns Intl
Region Australia
Timezone Australia/Brisbane (UTC+10.0)
Stats Elevation 10 ft / 3 m (AMSL)
Location -16.881079° 145.752598°
Runways 2
Magnetic Variation 6.715° E

METAR

YBCS 182200Z 13008KT 9999 FEW028 SCT040 28/21 Q1011 NOSIG

Decode

TAF

TAF YBCS 181714Z 1818/1918 17008KT 9999 -SHRA SCT025 FM190100 09012KT 9999 SCT030 FM190800 17008KT 9999 -SHRA SCT025

Decode

Departure Runways

ID Width Length Bearing (true) Bearing (mag) Surface Threshold Offset Overrun Length
12 62 ft / 19 m 3,045 ft / 928 m 125.77° 119.06° Asphalt 0 ft / 0 m 0 ft / 0 m
15 148 ft / 45 m 10,522 ft / 3,207 m 156.60° 149.89° Asphalt 0 ft / 0 m 328 ft / 100 m
30 62 ft / 19 m 3,045 ft / 928 m 305.77° 299.06° Asphalt 0 ft / 0 m 0 ft / 0 m
33 148 ft / 45 m 10,522 ft / 3,207 m 336.60° 329.89° Asphalt 0 ft / 0 m 0 ft / 0 m

YBTL

Details ICAO YBTL (TSV)
Name Townsville Intl
Region Australia
Timezone Australia/Brisbane (UTC+10.0)
Stats Elevation 18 ft / 5 m (AMSL)
Location -19.251349° 146.765017°
Runways 2
Magnetic Variation 7.383° E

METAR

YBTL 182200Z 11009KT 9999 FEW021 29/20 Q1011 NOSIG

Decode

TAF

TAF YBTL 181715Z 1818/1918 08010KT 9999 -SHRA SCT025 BKN060 FM182300 08013KT 9999 SCT030 FM190100 06018KT 9999 FEW035 FM190900 09012KT 9999 SCT025

Decode

Destination Runways

ID Width Length Bearing (true) Bearing (mag) Surface Threshold Offset Overrun Length
01 148 ft / 45 m 8,035 ft / 2,449 m 24.00° 16.62° Asphalt 0 ft / 0 m 0 ft / 0 m
07 98 ft / 30 m 3,617 ft / 1,102 m 73.84° 66.46° Concrete 0 ft / 0 m 0 ft / 0 m
19 148 ft / 45 m 8,035 ft / 2,449 m 204.00° 196.62° Asphalt 0 ft / 0 m 0 ft / 0 m
25 98 ft / 30 m 3,617 ft / 1,102 m 253.84° 246.46° Concrete 0 ft / 0 m 0 ft / 0 m

Approach Navaids

Runway Type Ident Frequency Range Bearing (true) Bearing (mag) Slope Elevation
01 Localiser ITL 109.30 MHz 18 nm / 33 km 23.71° 16.32° - 13 ft / 4 m (AMSL)
01 Glidescope ITL 109.30 MHz 10 nm / 19 km 24.02° 16.64° 3.00° 18 ft / 5 m (AMSL)
01 DME ITL 109.30 MHz 18 nm / 33 km - - - 18 ft / 5 m (AMSL)

Popular Alternatives